sensor_id;sensor_type;location;lat;lon;timestamp;P1;durP1;ratioP1;P2;durP2;ratioP2
9034;SDS011;4552;43.422;24.592;2022-11-24T00:00:03;14.63;;;6.80;;
9034;SDS011;4552;43.422;24.592;2022-11-24T00:02:31;14.47;;;6.43;;
9034;SDS011;4552;43.422;24.592;2022-11-24T00:04:58;17.63;;;8.77;;
9034;SDS011;4552;43.422;24.592;2022-11-24T00:07:25;16.93;;;6.83;;
9034;SDS011;4552;43.422;24.592;2022-11-24T00:09:52;15.10;;;7.17;;
9034;SDS011;4552;43.422;24.592;2022-11-24T00:12:20;13.63;;;6.27;;
9034;SDS011;4552;43.422;24.592;2022-11-24T00:14:47;14.93;;;7.20;;
9034;SDS011;4552;43.422;24.592;2022-11-24T00:17:14;15.60;;;7.00;;
9034;SDS011;4552;43.422;24.592;2022-11-24T00:19:41;16.07;;;7.30;;
9034;SDS011;4552;43.422;24.592;2022-11-24T00:22:08;12.30;;;5.93;;
9034;SDS011;4552;43.422;24.592;2022-11-24T00:24:35;15.30;;;6.70;;
9034;SDS011;4552;43.422;24.592;2022-11-24T00:27:02;14.40;;;6.73;;
9034;SDS011;4552;43.422;24.592;2022-11-24T00:29:30;13.97;;;6.63;;
9034;SDS011;4552;43.422;24.592;2022-11-24T00:31:58;16.00;;;7.07;;
9034;SDS011;4552;43.422;24.592;2022-11-24T00:34:27;14.13;;;6.77;;
9034;SDS011;4552;43.422;24.592;2022-11-24T00:36:54;10.70;;;6.43;;
9034;SDS011;4552;43.422;24.592;2022-11-24T00:39:22;16.73;;;7.33;;
9034;SDS011;4552;43.422;24.592;2022-11-24T00:41:49;13.37;;;6.47;;
9034;SDS011;4552;43.422;24.592;2022-11-24T00:44:16;11.53;;;6.37;;
9034;SDS011;4552;43.422;24.592;2022-11-24T00:46:44;11.53;;;5.73;;
9034;SDS011;4552;43.422;24.592;2022-11-24T00:49:11;12.43;;;6.23;;
9034;SDS011;4552;43.422;24.592;2022-11-24T00:51:38;14.57;;;6.50;;
9034;SDS011;4552;43.422;24.592;2022-11-24T00:54:05;14.50;;;6.10;;
9034;SDS011;4552;43.422;24.592;2022-11-24T00:56:32;12.53;;;6.00;;
9034;SDS011;4552;43.422;24.592;2022-11-24T00:58:59;9.93;;;5.13;;
9034;SDS011;4552;43.422;24.592;2022-11-24T01:01:27;12.60;;;6.33;;
9034;SDS011;4552;43.422;24.592;2022-11-24T01:03:56;11.63;;;6.10;;
9034;SDS011;4552;43.422;24.592;2022-11-24T01:06:25;13.37;;;6.37;;
9034;SDS011;4552;43.422;24.592;2022-11-24T01:08:54;12.27;;;5.67;;
9034;SDS011;4552;43.422;24.592;2022-11-24T01:11:23;12.23;;;6.57;;
9034;SDS011;4552;43.422;24.592;2022-11-24T01:13:52;14.07;;;6.30;;
9034;SDS011;4552;43.422;24.592;2022-11-24T01:16:23;11.50;;;6.07;;
9034;SDS011;4552;43.422;24.592;2022-11-24T01:18:52;17.93;;;6.90;;
9034;SDS011;4552;43.422;24.592;2022-11-24T01:21:21;13.53;;;6.37;;
9034;SDS011;4552;43.422;24.592;2022-11-24T01:23:48;12.43;;;5.70;;
9034;SDS011;4552;43.422;24.592;2022-11-24T01:26:16;15.93;;;6.30;;
9034;SDS011;4552;43.422;24.592;2022-11-24T01:28:46;14.10;;;6.10;;
9034;SDS011;4552;43.422;24.592;2022-11-24T01:31:18;12.73;;;6.87;;
9034;SDS011;4552;43.422;24.592;2022-11-24T01:33:45;11.80;;;6.13;;
9034;SDS011;4552;43.422;24.592;2022-11-24T01:36:12;12.70;;;5.90;;
9034;SDS011;4552;43.422;24.592;2022-11-24T01:38:41;13.27;;;7.30;;
9034;SDS011;4552;43.422;24.592;2022-11-24T01:41:12;11.10;;;5.70;;
9034;SDS011;4552;43.422;24.592;2022-11-24T01:43:42;11.97;;;6.07;;
9034;SDS011;4552;43.422;24.592;2022-11-24T01:46:13;13.03;;;6.67;;
9034;SDS011;4552;43.422;24.592;2022-11-24T01:48:45;13.53;;;6.37;;
9034;SDS011;4552;43.422;24.592;2022-11-24T01:51:16;12.50;;;6.77;;
9034;SDS011;4552;43.422;24.592;2022-11-24T01:53:50;11.37;;;5.70;;
9034;SDS011;4552;43.422;24.592;2022-11-24T01:56:20;10.40;;;5.23;;
9034;SDS011;4552;43.422;24.592;2022-11-24T01:58:48;9.27;;;5.80;;
9034;SDS011;4552;43.422;24.592;2022-11-24T02:01:17;11.30;;;5.87;;
9034;SDS011;4552;43.422;24.592;2022-11-24T02:03:46;11.70;;;6.00;;
9034;SDS011;4552;43.422;24.592;2022-11-24T02:06:15;11.50;;;5.70;;
9034;SDS011;4552;43.422;24.592;2022-11-24T02:08:50;13.40;;;5.93;;
9034;SDS011;4552;43.422;24.592;2022-11-24T02:11:23;14.07;;;6.40;;
9034;SDS011;4552;43.422;24.592;2022-11-24T02:13:53;8.50;;;5.37;;
9034;SDS011;4552;43.422;24.592;2022-11-24T02:16:23;9.67;;;5.70;;
9034;SDS011;4552;43.422;24.592;2022-11-24T02:18:51;12.40;;;6.80;;
9034;SDS011;4552;43.422;24.592;2022-11-24T02:21:19;10.63;;;6.23;;
9034;SDS011;4552;43.422;24.592;2022-11-24T02:23:48;9.27;;;5.60;;
9034;SDS011;4552;43.422;24.592;2022-11-24T02:26:30;12.63;;;6.03;;
9034;SDS011;4552;43.422;24.592;2022-11-24T02:29:02;12.67;;;5.90;;
9034;SDS011;4552;43.422;24.592;2022-11-24T02:31:30;10.73;;;5.50;;
9034;SDS011;4552;43.422;24.592;2022-11-24T02:33:57;10.27;;;5.77;;
9034;SDS011;4552;43.422;24.592;2022-11-24T02:36:24;13.03;;;5.53;;
9034;SDS011;4552;43.422;24.592;2022-11-24T02:38:51;14.10;;;6.20;;
9034;SDS011;4552;43.422;24.592;2022-11-24T02:41:18;13.17;;;5.83;;
9034;SDS011;4552;43.422;24.592;2022-11-24T02:43:50;11.70;;;5.90;;
9034;SDS011;4552;43.422;24.592;2022-11-24T02:46:20;9.67;;;5.43;;
9034;SDS011;4552;43.422;24.592;2022-11-24T02:48:47;11.23;;;5.00;;
9034;SDS011;4552;43.422;24.592;2022-11-24T02:51:15;9.10;;;4.67;;
9034;SDS011;4552;43.422;24.592;2022-11-24T02:53:42;9.70;;;5.13;;
9034;SDS011;4552;43.422;24.592;2022-11-24T02:56:10;9.87;;;5.57;;
9034;SDS011;4552;43.422;24.592;2022-11-24T02:58:37;10.20;;;5.03;;
9034;SDS011;4552;43.422;24.592;2022-11-24T03:01:06;7.87;;;5.03;;
9034;SDS011;4552;43.422;24.592;2022-11-24T03:03:33;11.27;;;5.43;;
9034;SDS011;4552;43.422;24.592;2022-11-24T03:06:00;7.87;;;4.57;;
9034;SDS011;4552;43.422;24.592;2022-11-24T03:08:27;6.97;;;4.40;;
9034;SDS011;4552;43.422;24.592;2022-11-24T03:10:54;6.90;;;4.50;;
9034;SDS011;4552;43.422;24.592;2022-11-24T03:13:21;8.53;;;4.20;;
9034;SDS011;4552;43.422;24.592;2022-11-24T03:15:48;8.20;;;5.00;;
9034;SDS011;4552;43.422;24.592;2022-11-24T03:18:18;10.57;;;4.50;;
9034;SDS011;4552;43.422;24.592;2022-11-24T03:20:45;7.67;;;4.63;;
9034;SDS011;4552;43.422;24.592;2022-11-24T03:23:13;8.57;;;4.60;;
9034;SDS011;4552;43.422;24.592;2022-11-24T03:25:40;7.87;;;4.70;;
9034;SDS011;4552;43.422;24.592;2022-11-24T03:28:07;7.57;;;5.17;;
9034;SDS011;4552;43.422;24.592;2022-11-24T03:30:34;11.83;;;5.80;;
9034;SDS011;4552;43.422;24.592;2022-11-24T03:33:01;9.70;;;4.67;;
9034;SDS011;4552;43.422;24.592;2022-11-24T03:35:30;8.03;;;5.37;;
9034;SDS011;4552;43.422;24.592;2022-11-24T03:37:57;7.47;;;4.50;;
9034;SDS011;4552;43.422;24.592;2022-11-24T03:40:24;7.30;;;4.63;;
9034;SDS011;4552;43.422;24.592;2022-11-24T03:42:51;10.40;;;5.30;;
9034;SDS011;4552;43.422;24.592;2022-11-24T03:45:18;7.97;;;4.47;;
9034;SDS011;4552;43.422;24.592;2022-11-24T03:47:48;11.17;;;5.43;;
9034;SDS011;4552;43.422;24.592;2022-11-24T03:50:17;11.03;;;5.40;;
9034;SDS011;4552;43.422;24.592;2022-11-24T03:52:45;13.73;;;5.57;;
9034;SDS011;4552;43.422;24.592;2022-11-24T03:55:12;11.03;;;5.43;;
9034;SDS011;4552;43.422;24.592;2022-11-24T03:57:39;13.23;;;6.60;;
9034;SDS011;4552;43.422;24.592;2022-11-24T04:00:07;9.27;;;5.73;;
9034;SDS011;4552;43.422;24.592;2022-11-24T04:02:37;10.93;;;5.30;;
9034;SDS011;4552;43.422;24.592;2022-11-24T04:05:07;14.07;;;5.67;;
9034;SDS011;4552;43.422;24.592;2022-11-24T04:07:34;8.97;;;4.70;;
9034;SDS011;4552;43.422;24.592;2022-11-24T04:10:05;14.07;;;6.33;;
9034;SDS011;4552;43.422;24.592;2022-11-24T04:12:33;13.43;;;6.07;;
9034;SDS011;4552;43.422;24.592;2022-11-24T04:15:11;12.63;;;6.33;;
9034;SDS011;4552;43.422;24.592;2022-11-24T04:17:39;11.37;;;4.97;;
9034;SDS011;4552;43.422;24.592;2022-11-24T04:20:06;10.03;;;4.90;;
9034;SDS011;4552;43.422;24.592;2022-11-24T04:22:34;11.90;;;5.73;;
9034;SDS011;4552;43.422;24.592;2022-11-24T04:27:49;11.40;;;5.17;;
9034;SDS011;4552;43.422;24.592;2022-11-24T04:30:17;14.27;;;6.00;;
9034;SDS011;4552;43.422;24.592;2022-11-24T04:32:45;8.83;;;5.27;;
9034;SDS011;4552;43.422;24.592;2022-11-24T04:35:12;11.17;;;5.23;;
9034;SDS011;4552;43.422;24.592;2022-11-24T04:37:40;10.53;;;5.87;;
9034;SDS011;4552;43.422;24.592;2022-11-24T04:40:08;13.17;;;5.63;;
9034;SDS011;4552;43.422;24.592;2022-11-24T04:42:38;15.17;;;6.43;;
9034;SDS011;4552;43.422;24.592;2022-11-24T04:45:05;18.87;;;6.30;;
9034;SDS011;4552;43.422;24.592;2022-11-24T04:47:33;17.20;;;6.17;;
9034;SDS011;4552;43.422;24.592;2022-11-24T04:50:00;13.73;;;5.83;;
9034;SDS011;4552;43.422;24.592;2022-11-24T04:52:29;16.73;;;7.00;;
9034;SDS011;4552;43.422;24.592;2022-11-24T04:54:56;17.33;;;6.73;;
9034;SDS011;4552;43.422;24.592;2022-11-24T04:57:24;15.30;;;6.43;;
9034;SDS011;4552;43.422;24.592;2022-11-24T04:59:53;14.10;;;6.13;;
9034;SDS011;4552;43.422;24.592;2022-11-24T05:02:21;16.73;;;6.40;;
9034;SDS011;4552;43.422;24.592;2022-11-24T05:04:48;14.40;;;6.57;;
9034;SDS011;4552;43.422;24.592;2022-11-24T05:07:16;15.53;;;7.00;;
9034;SDS011;4552;43.422;24.592;2022-11-24T05:09:46;16.57;;;6.63;;
9034;SDS011;4552;43.422;24.592;2022-11-24T05:12:52;13.63;;;6.23;;
9034;SDS011;4552;43.422;24.592;2022-11-24T05:15:22;12.10;;;5.83;;
9034;SDS011;4552;43.422;24.592;2022-11-24T05:17:49;17.88;;;8.80;;
9034;SDS011;4552;43.422;24.592;2022-11-24T05:20:16;12.20;;;6.63;;
9034;SDS011;4552;43.422;24.592;2022-11-24T05:22:43;12.83;;;7.30;;
9034;SDS011;4552;43.422;24.592;2022-11-24T05:25:10;16.67;;;6.70;;
9034;SDS011;4552;43.422;24.592;2022-11-24T05:27:38;18.03;;;7.23;;
9034;SDS011;4552;43.422;24.592;2022-11-24T05:30:06;13.27;;;6.80;;
9034;SDS011;4552;43.422;24.592;2022-11-24T05:32:35;15.73;;;7.10;;
9034;SDS011;4552;43.422;24.592;2022-11-24T05:35:02;11.97;;;6.57;;
9034;SDS011;4552;43.422;24.592;2022-11-24T05:37:30;20.37;;;8.43;;
9034;SDS011;4552;43.422;24.592;2022-11-24T05:39:59;21.13;;;7.70;;
9034;SDS011;4552;43.422;24.592;2022-11-24T05:42:26;18.23;;;7.50;;
9034;SDS011;4552;43.422;24.592;2022-11-24T05:45:09;23.10;;;8.40;;
9034;SDS011;4552;43.422;24.592;2022-11-24T05:47:40;17.97;;;8.67;;
9034;SDS011;4552;43.422;24.592;2022-11-24T05:50:08;19.20;;;8.13;;
9034;SDS011;4552;43.422;24.592;2022-11-24T05:52:37;20.70;;;8.53;;
9034;SDS011;4552;43.422;24.592;2022-11-24T05:55:04;16.87;;;7.50;;
9034;SDS011;4552;43.422;24.592;2022-11-24T05:57:32;16.43;;;6.77;;
9034;SDS011;4552;43.422;24.592;2022-11-24T06:00:00;15.47;;;7.30;;
9034;SDS011;4552;43.422;24.592;2022-11-24T06:02:29;14.27;;;7.00;;
9034;SDS011;4552;43.422;24.592;2022-11-24T06:04:58;17.87;;;7.87;;
9034;SDS011;4552;43.422;24.592;2022-11-24T06:07:26;16.30;;;7.37;;
9034;SDS011;4552;43.422;24.592;2022-11-24T06:09:53;20.53;;;7.97;;
9034;SDS011;4552;43.422;24.592;2022-11-24T06:12:20;16.27;;;7.27;;
9034;SDS011;4552;43.422;24.592;2022-11-24T06:14:46;15.67;;;7.40;;
9034;SDS011;4552;43.422;24.592;2022-11-24T06:17:13;12.40;;;7.47;;
9034;SDS011;4552;43.422;24.592;2022-11-24T06:19:41;21.43;;;6.90;;
9034;SDS011;4552;43.422;24.592;2022-11-24T06:22:13;20.43;;;8.10;;
9034;SDS011;4552;43.422;24.592;2022-11-24T06:24:40;17.07;;;6.97;;
9034;SDS011;4552;43.422;24.592;2022-11-24T06:27:07;19.03;;;8.73;;
9034;SDS011;4552;43.422;24.592;2022-11-24T06:29:34;19.17;;;8.47;;
9034;SDS011;4552;43.422;24.592;2022-11-24T06:32:03;16.33;;;7.83;;
9034;SDS011;4552;43.422;24.592;2022-11-24T06:34:31;25.40;;;9.40;;
9034;SDS011;4552;43.422;24.592;2022-11-24T06:36:57;23.73;;;9.43;;
9034;SDS011;4552;43.422;24.592;2022-11-24T06:39:26;25.33;;;9.07;;
9034;SDS011;4552;43.422;24.592;2022-11-24T06:41:54;24.63;;;8.87;;
9034;SDS011;4552;43.422;24.592;2022-11-24T06:44:22;18.40;;;8.43;;
9034;SDS011;4552;43.422;24.592;2022-11-24T06:46:49;18.23;;;8.43;;
9034;SDS011;4552;43.422;24.592;2022-11-24T06:49:16;19.30;;;8.53;;
9034;SDS011;4552;43.422;24.592;2022-11-24T06:51:43;18.43;;;8.90;;
9034;SDS011;4552;43.422;24.592;2022-11-24T06:54:11;22.80;;;8.37;;
9034;SDS011;4552;43.422;24.592;2022-11-24T06:56:42;22.83;;;8.97;;
9034;SDS011;4552;43.422;24.592;2022-11-24T06:59:12;24.23;;;9.27;;
9034;SDS011;4552;43.422;24.592;2022-11-24T07:01:42;23.27;;;8.47;;
9034;SDS011;4552;43.422;24.592;2022-11-24T07:04:12;23.27;;;7.47;;
9034;SDS011;4552;43.422;24.592;2022-11-24T07:06:39;17.20;;;8.27;;
9034;SDS011;4552;43.422;24.592;2022-11-24T07:09:06;21.90;;;8.50;;
9034;SDS011;4552;43.422;24.592;2022-11-24T07:11:34;17.90;;;7.97;;
9034;SDS011;4552;43.422;24.592;2022-11-24T07:14:03;15.60;;;7.03;;
9034;SDS011;4552;43.422;24.592;2022-11-24T07:16:31;17.43;;;7.20;;
9034;SDS011;4552;43.422;24.592;2022-11-24T07:18:58;18.30;;;7.77;;
9034;SDS011;4552;43.422;24.592;2022-11-24T07:21:26;16.70;;;8.27;;
9034;SDS011;4552;43.422;24.592;2022-11-24T07:23:55;19.07;;;7.20;;
9034;SDS011;4552;43.422;24.592;2022-11-24T07:26:25;19.47;;;8.17;;
9034;SDS011;4552;43.422;24.592;2022-11-24T07:28:52;15.70;;;7.83;;
9034;SDS011;4552;43.422;24.592;2022-11-24T07:31:21;16.27;;;7.57;;
9034;SDS011;4552;43.422;24.592;2022-11-24T07:33:50;14.40;;;6.73;;
9034;SDS011;4552;43.422;24.592;2022-11-24T07:36:18;13.87;;;7.60;;
9034;SDS011;4552;43.422;24.592;2022-11-24T07:38:45;16.73;;;7.53;;
9034;SDS011;4552;43.422;24.592;2022-11-24T07:41:13;15.10;;;7.80;;
9034;SDS011;4552;43.422;24.592;2022-11-24T07:43:42;13.33;;;7.20;;
9034;SDS011;4552;43.422;24.592;2022-11-24T07:46:10;11.37;;;6.97;;
9034;SDS011;4552;43.422;24.592;2022-11-24T07:48:41;13.40;;;7.70;;
9034;SDS011;4552;43.422;24.592;2022-11-24T07:51:08;20.87;;;8.90;;
9034;SDS011;4552;43.422;24.592;2022-11-24T07:53:36;14.03;;;7.47;;
9034;SDS011;4552;43.422;24.592;2022-11-24T07:56:04;12.37;;;6.67;;
9034;SDS011;4552;43.422;24.592;2022-11-24T07:58:32;8.83;;;6.17;;
9034;SDS011;4552;43.422;24.592;2022-11-24T08:01:07;14.17;;;7.13;;
9034;SDS011;4552;43.422;24.592;2022-11-24T08:03:35;14.50;;;6.33;;
9034;SDS011;4552;43.422;24.592;2022-11-24T08:06:04;13.73;;;6.20;;
9034;SDS011;4552;43.422;24.592;2022-11-24T08:08:31;5.93;;;2.47;;
9034;SDS011;4552;43.422;24.592;2022-11-24T08:11:03;3.03;;;2.30;;
9034;SDS011;4552;43.422;24.592;2022-11-24T08:13:31;2.07;;;1.60;;
9034;SDS011;4552;43.422;24.592;2022-11-24T08:16:02;1.50;;;1.40;;
9034;SDS011;4552;43.422;24.592;2022-11-24T08:18:30;1.40;;;1.30;;
9034;SDS011;4552;43.422;24.592;2022-11-24T08:20:57;1.53;;;1.43;;
9034;SDS011;4552;43.422;24.592;2022-11-24T08:23:26;1.50;;;1.40;;
9034;SDS011;4552;43.422;24.592;2022-11-24T08:25:54;1.60;;;1.50;;
9034;SDS011;4552;43.422;24.592;2022-11-24T08:28:24;2.80;;;1.53;;
9034;SDS011;4552;43.422;24.592;2022-11-24T08:30:59;2.13;;;1.63;;
9034;SDS011;4552;43.422;24.592;2022-11-24T08:33:27;1.70;;;1.60;;
9034;SDS011;4552;43.422;24.592;2022-11-24T08:35:54;1.60;;;1.50;;
9034;SDS011;4552;43.422;24.592;2022-11-24T08:38:21;1.80;;;1.70;;
9034;SDS011;4552;43.422;24.592;2022-11-24T08:40:49;1.60;;;1.50;;
9034;SDS011;4552;43.422;24.592;2022-11-24T08:43:17;2.27;;;1.97;;
9034;SDS011;4552;43.422;24.592;2022-11-24T08:45:49;1.90;;;1.80;;
9034;SDS011;4552;43.422;24.592;2022-11-24T08:48:17;2.60;;;2.00;;
9034;SDS011;4552;43.422;24.592;2022-11-24T08:50:55;2.50;;;2.30;;
9034;SDS011;4552;43.422;24.592;2022-11-24T08:53:24;3.07;;;2.10;;
9034;SDS011;4552;43.422;24.592;2022-11-24T08:55:52;1.60;;;1.50;;
9034;SDS011;4552;43.422;24.592;2022-11-24T08:58:27;1.80;;;1.70;;
9034;SDS011;4552;43.422;24.592;2022-11-24T09:01:02;2.73;;;2.00;;
9034;SDS011;4552;43.422;24.592;2022-11-24T09:03:30;1.80;;;1.63;;
9034;SDS011;4552;43.422;24.592;2022-11-24T09:05:57;1.80;;;1.70;;
9034;SDS011;4552;43.422;24.592;2022-11-24T09:08:24;2.00;;;1.80;;
9034;SDS011;4552;43.422;24.592;2022-11-24T09:10:52;1.80;;;1.70;;
9034;SDS011;4552;43.422;24.592;2022-11-24T09:13:24;1.53;;;1.43;;
9034;SDS011;4552;43.422;24.592;2022-11-24T09:15:51;1.70;;;1.60;;
9034;SDS011;4552;43.422;24.592;2022-11-24T09:18:20;1.67;;;1.57;;
9034;SDS011;4552;43.422;24.592;2022-11-24T09:21:04;2.60;;;2.00;;
9034;SDS011;4552;43.422;24.592;2022-11-24T09:23:31;1.67;;;1.57;;
9034;SDS011;4552;43.422;24.592;2022-11-24T09:26:04;2.20;;;1.97;;
9034;SDS011;4552;43.422;24.592;2022-11-24T09:28:33;2.60;;;1.63;;
9034;SDS011;4552;43.422;24.592;2022-11-24T09:31:04;2.00;;;1.90;;
9034;SDS011;4552;43.422;24.592;2022-11-24T09:33:42;1.90;;;1.73;;
9034;SDS011;4552;43.422;24.592;2022-11-24T09:36:23;1.90;;;1.80;;
9034;SDS011;4552;43.422;24.592;2022-11-24T09:39:18;1.80;;;1.70;;
9034;SDS011;4552;43.422;24.592;2022-11-24T09:42:07;2.23;;;1.83;;
9034;SDS011;4552;43.422;24.592;2022-11-24T09:47:56;2.67;;;1.90;;
9034;SDS011;4552;43.422;24.592;2022-11-24T09:50:28;2.00;;;1.90;;
9034;SDS011;4552;43.422;24.592;2022-11-24T09:53:01;3.07;;;2.60;;
9034;SDS011;4552;43.422;24.592;2022-11-24T09:55:35;2.20;;;2.00;;
9034;SDS011;4552;43.422;24.592;2022-11-24T10:01:18;2.23;;;2.03;;
9034;SDS011;4552;43.422;24.592;2022-11-24T10:04:09;2.57;;;2.37;;
9034;SDS011;4552;43.422;24.592;2022-11-24T10:06:43;3.40;;;2.40;;
9034;SDS011;4552;43.422;24.592;2022-11-24T10:09:19;3.30;;;2.97;;
9034;SDS011;4552;43.422;24.592;2022-11-24T10:11:59;2.83;;;2.53;;
9034;SDS011;4552;43.422;24.592;2022-11-24T10:14:49;3.57;;;2.57;;
9034;SDS011;4552;43.422;24.592;2022-11-24T10:17:56;3.77;;;2.80;;
9034;SDS011;4552;43.422;24.592;2022-11-24T10:21:00;2.97;;;2.67;;
9034;SDS011;4552;43.422;24.592;2022-11-24T10:23:44;2.77;;;2.20;;
9034;SDS011;4552;43.422;24.592;2022-11-24T10:26:31;5.63;;;3.10;;
9034;SDS011;4552;43.422;24.592;2022-11-24T10:29:14;4.30;;;2.60;;
9034;SDS011;4552;43.422;24.592;2022-11-24T10:31:48;3.77;;;2.80;;
9034;SDS011;4552;43.422;24.592;2022-11-24T10:34:30;4.47;;;3.40;;
9034;SDS011;4552;43.422;24.592;2022-11-24T10:37:05;5.53;;;3.20;;
9034;SDS011;4552;43.422;24.592;2022-11-24T10:39:44;3.33;;;2.80;;
9034;SDS011;4552;43.422;24.592;2022-11-24T10:42:25;3.80;;;2.93;;
9034;SDS011;4552;43.422;24.592;2022-11-24T10:44:58;2.57;;;2.37;;
9034;SDS011;4552;43.422;24.592;2022-11-24T10:47:26;3.40;;;2.60;;
9034;SDS011;4552;43.422;24.592;2022-11-24T10:49:57;2.83;;;2.57;;
9034;SDS011;4552;43.422;24.592;2022-11-24T10:52:28;1.93;;;1.83;;
9034;SDS011;4552;43.422;24.592;2022-11-24T10:54:58;3.20;;;2.70;;
9034;SDS011;4552;43.422;24.592;2022-11-24T10:57:28;5.33;;;2.70;;
9034;SDS011;4552;43.422;24.592;2022-11-24T10:59:58;3.80;;;2.30;;
9034;SDS011;4552;43.422;24.592;2022-11-24T11:02:34;2.60;;;2.13;;
9034;SDS011;4552;43.422;24.592;2022-11-24T11:05:26;2.97;;;2.47;;
9034;SDS011;4552;43.422;24.592;2022-11-24T11:08:10;2.27;;;2.07;;
9034;SDS011;4552;43.422;24.592;2022-11-24T11:10:45;2.92;;;2.60;;
9034;SDS011;4552;43.422;24.592;2022-11-24T11:13:25;5.07;;;2.70;;
9034;SDS011;4552;43.422;24.592;2022-11-24T11:15:57;3.33;;;2.63;;
9034;SDS011;4552;43.422;24.592;2022-11-24T11:18:26;2.30;;;2.10;;
9034;SDS011;4552;43.422;24.592;2022-11-24T11:21:09;2.53;;;2.33;;
9034;SDS011;4552;43.422;24.592;2022-11-24T11:23:52;3.13;;;2.30;;
9034;SDS011;4552;43.422;24.592;2022-11-24T11:26:28;2.40;;;2.20;;
9034;SDS011;4552;43.422;24.592;2022-11-24T11:28:59;2.33;;;2.10;;
9034;SDS011;4552;43.422;24.592;2022-11-24T11:31:28;2.63;;;2.43;;
9034;SDS011;4552;43.422;24.592;2022-11-24T11:33:59;3.00;;;2.47;;
9034;SDS011;4552;43.422;24.592;2022-11-24T11:36:30;2.67;;;2.20;;
9034;SDS011;4552;43.422;24.592;2022-11-24T11:38:58;2.93;;;2.63;;
9034;SDS011;4552;43.422;24.592;2022-11-24T11:41:29;2.90;;;2.33;;
9034;SDS011;4552;43.422;24.592;2022-11-24T11:46:53;3.87;;;2.20;;
9034;SDS011;4552;43.422;24.592;2022-11-24T11:49:25;3.03;;;2.50;;
9034;SDS011;4552;43.422;24.592;2022-11-24T12:01:27;2.87;;;2.30;;
9034;SDS011;4552;43.422;24.592;2022-11-24T12:04:20;2.70;;;2.40;;
9034;SDS011;4552;43.422;24.592;2022-11-24T12:07:13;2.97;;;2.57;;
9034;SDS011;4552;43.422;24.592;2022-11-24T12:09:54;2.90;;;2.33;;
9034;SDS011;4552;43.422;24.592;2022-11-24T12:12:48;2.80;;;2.50;;
9034;SDS011;4552;43.422;24.592;2022-11-24T12:15:27;5.17;;;2.77;;
9034;SDS011;4552;43.422;24.592;2022-11-24T12:18:08;2.80;;;2.50;;
9034;SDS011;4552;43.422;24.592;2022-11-24T12:20:51;3.23;;;2.83;;
9034;SDS011;4552;43.422;24.592;2022-11-24T12:23:28;2.33;;;2.00;;
9034;SDS011;4552;43.422;24.592;2022-11-24T12:26:05;2.80;;;2.50;;
9034;SDS011;4552;43.422;24.592;2022-11-24T12:28:45;1.97;;;1.83;;
9034;SDS011;4552;43.422;24.592;2022-11-24T12:31:21;2.70;;;2.17;;
9034;SDS011;4552;43.422;24.592;2022-11-24T12:34:07;3.83;;;2.57;;
9034;SDS011;4552;43.422;24.592;2022-11-24T12:36:51;2.73;;;2.13;;
9034;SDS011;4552;43.422;24.592;2022-11-24T12:39:34;2.63;;;2.40;;
9034;SDS011;4552;43.422;24.592;2022-11-24T12:42:08;2.90;;;2.57;;
9034;SDS011;4552;43.422;24.592;2022-11-24T12:44:45;2.40;;;2.17;;
9034;SDS011;4552;43.422;24.592;2022-11-24T12:47:24;2.67;;;2.10;;
9034;SDS011;4552;43.422;24.592;2022-11-24T12:50:03;2.50;;;2.17;;
9034;SDS011;4552;43.422;24.592;2022-11-24T12:52:36;2.53;;;2.30;;
9034;SDS011;4552;43.422;24.592;2022-11-24T12:55:11;3.17;;;2.50;;
9034;SDS011;4552;43.422;24.592;2022-11-24T12:57:43;2.40;;;2.20;;
9034;SDS011;4552;43.422;24.592;2022-11-24T13:00:19;3.00;;;2.30;;
9034;SDS011;4552;43.422;24.592;2022-11-24T13:02:54;2.40;;;2.20;;
9034;SDS011;4552;43.422;24.592;2022-11-24T13:05:42;3.13;;;2.23;;
9034;SDS011;4552;43.422;24.592;2022-11-24T13:08:17;2.70;;;2.37;;
9034;SDS011;4552;43.422;24.592;2022-11-24T13:10:45;2.90;;;2.60;;
9034;SDS011;4552;43.422;24.592;2022-11-24T13:13:12;2.80;;;2.40;;
9034;SDS011;4552;43.422;24.592;2022-11-24T13:18:46;4.07;;;2.57;;
9034;SDS011;4552;43.422;24.592;2022-11-24T13:21:44;2.33;;;2.10;;
9034;SDS011;4552;43.422;24.592;2022-11-24T13:24:21;2.90;;;2.20;;
9034;SDS011;4552;43.422;24.592;2022-11-24T13:26:53;2.30;;;2.10;;
9034;SDS011;4552;43.422;24.592;2022-11-24T13:29:41;4.23;;;2.50;;
9034;SDS011;4552;43.422;24.592;2022-11-24T13:35:16;3.50;;;2.20;;
9034;SDS011;4552;43.422;24.592;2022-11-24T13:37:45;2.23;;;1.97;;
9034;SDS011;4552;43.422;24.592;2022-11-24T13:43:19;2.50;;;2.30;;
9034;SDS011;4552;43.422;24.592;2022-11-24T13:45:49;2.30;;;2.10;;
9034;SDS011;4552;43.422;24.592;2022-11-24T13:51:25;2.80;;;2.40;;
9034;SDS011;4552;43.422;24.592;2022-11-24T13:53:53;2.60;;;2.40;;
9034;SDS011;4552;43.422;24.592;2022-11-24T13:56:25;2.37;;;2.17;;
9034;SDS011;4552;43.422;24.592;2022-11-24T13:58:55;2.87;;;2.40;;
9034;SDS011;4552;43.422;24.592;2022-11-24T14:01:27;2.70;;;2.50;;
9034;SDS011;4552;43.422;24.592;2022-11-24T14:04:04;3.67;;;2.30;;
9034;SDS011;4552;43.422;24.592;2022-11-24T14:06:41;3.23;;;2.70;;
9034;SDS011;4552;43.422;24.592;2022-11-24T14:09:17;4.33;;;2.87;;
9034;SDS011;4552;43.422;24.592;2022-11-24T14:11:56;3.00;;;2.10;;
9034;SDS011;4552;43.422;24.592;2022-11-24T14:14:27;2.60;;;2.37;;
9034;SDS011;4552;43.422;24.592;2022-11-24T14:17:11;3.00;;;2.70;;
9034;SDS011;4552;43.422;24.592;2022-11-24T14:19:41;2.93;;;2.63;;
9034;SDS011;4552;43.422;24.592;2022-11-24T14:22:14;3.33;;;2.50;;
9034;SDS011;4552;43.422;24.592;2022-11-24T14:24:44;2.50;;;2.30;;
9034;SDS011;4552;43.422;24.592;2022-11-24T14:27:19;2.70;;;2.37;;
9034;SDS011;4552;43.422;24.592;2022-11-24T14:29:53;2.87;;;2.57;;
9034;SDS011;4552;43.422;24.592;2022-11-24T14:32:24;3.37;;;2.30;;
9034;SDS011;4552;43.422;24.592;2022-11-24T14:34:52;3.03;;;2.73;;
9034;SDS011;4552;43.422;24.592;2022-11-24T14:37:20;3.57;;;2.67;;
9034;SDS011;4552;43.422;24.592;2022-11-24T14:39:51;3.87;;;2.80;;
9034;SDS011;4552;43.422;24.592;2022-11-24T14:42:19;3.10;;;2.67;;
9034;SDS011;4552;43.422;24.592;2022-11-24T14:44:49;3.47;;;2.80;;
9034;SDS011;4552;43.422;24.592;2022-11-24T14:47:26;4.77;;;2.90;;
9034;SDS011;4552;43.422;24.592;2022-11-24T14:49:55;3.83;;;2.80;;
9034;SDS011;4552;43.422;24.592;2022-11-24T14:52:23;2.80;;;2.50;;
9034;SDS011;4552;43.422;24.592;2022-11-24T14:54:55;3.70;;;2.60;;
9034;SDS011;4552;43.422;24.592;2022-11-24T14:57:25;2.47;;;2.27;;
9034;SDS011;4552;43.422;24.592;2022-11-24T15:00:04;3.03;;;2.70;;
9034;SDS011;4552;43.422;24.592;2022-11-24T15:02:37;3.90;;;2.87;;
9034;SDS011;4552;43.422;24.592;2022-11-24T15:05:06;2.47;;;2.27;;
9034;SDS011;4552;43.422;24.592;2022-11-24T15:07:33;3.27;;;2.30;;
9034;SDS011;4552;43.422;24.592;2022-11-24T15:10:15;2.40;;;2.20;;
9034;SDS011;4552;43.422;24.592;2022-11-24T15:12:47;2.60;;;2.40;;
9034;SDS011;4552;43.422;24.592;2022-11-24T15:15:20;3.00;;;2.70;;
9034;SDS011;4552;43.422;24.592;2022-11-24T15:17:52;3.50;;;2.60;;
9034;SDS011;4552;43.422;24.592;2022-11-24T15:20:24;3.17;;;2.67;;
9034;SDS011;4552;43.422;24.592;2022-11-24T15:23:17;3.40;;;2.73;;
9034;SDS011;4552;43.422;24.592;2022-11-24T15:25:49;2.57;;;2.37;;
9034;SDS011;4552;43.422;24.592;2022-11-24T15:28:17;3.53;;;2.60;;
9034;SDS011;4552;43.422;24.592;2022-11-24T15:30:48;3.43;;;2.40;;
9034;SDS011;4552;43.422;24.592;2022-11-24T15:33:16;3.67;;;2.57;;
9034;SDS011;4552;43.422;24.592;2022-11-24T15:35:44;2.97;;;2.67;;
9034;SDS011;4552;43.422;24.592;2022-11-24T15:38:14;2.83;;;2.30;;
9034;SDS011;4552;43.422;24.592;2022-11-24T15:40:43;3.13;;;2.67;;
9034;SDS011;4552;43.422;24.592;2022-11-24T15:43:18;3.17;;;2.53;;
9034;SDS011;4552;43.422;24.592;2022-11-24T15:45:55;3.63;;;2.77;;
9034;SDS011;4552;43.422;24.592;2022-11-24T15:48:22;3.87;;;3.00;;
9034;SDS011;4552;43.422;24.592;2022-11-24T15:50:52;3.20;;;2.90;;
9034;SDS011;4552;43.422;24.592;2022-11-24T15:53:23;3.43;;;2.87;;